Time;durP1;ratioP1;P1;durP2;ratioP2;P2;SDS_P1;SDS_P2;PMS_P1;PMS_P2;Temp;Humidity;BMP_temperature;BMP_pressure;BME280_temperature;BME280_humidity;BME280_pressure;Samples;Min_cycle;Max_cycle;Signal;HPM_P1;HPM_P2
2021/03/16 00:00:11;;;;;;;29.08;3.67;;;5.40;99.90;;;;;;5046239;28;20040;-65
2021/03/16 00:02:38;;;;;;;34.17;3.63;;;5.40;99.90;;;;;;5064637;28;20031;-65
2021/03/16 00:05:05;;;;;;;22.85;2.92;;;5.40;99.90;;;;;;5065114;28;20452;-65
2021/03/16 00:07:31;;;;;;;21.23;2.58;;;5.40;99.80;;;;;;5064708;28;20052;-65
2021/03/16 00:09:57;;;;;;;21.35;3.10;;;5.40;99.70;;;;;;5065811;28;20047;-65
2021/03/16 00:12:23;;;;;;;23.98;3.22;;;5.40;99.90;;;;;;5061800;28;20070;-65
2021/03/16 00:14:49;;;;;;;26.77;4.13;;;5.50;99.90;;;;;;5066230;28;20437;-65
2021/03/16 00:17:15;;;;;;;28.13;3.22;;;5.50;99.90;;;;;;5058496;28;20032;-65
2021/03/16 00:19:41;;;;;;;26.33;3.47;;;5.50;99.90;;;;;;5063582;28;20071;-65
2021/03/16 00:22:07;;;;;;;23.58;3.58;;;5.50;99.90;;;;;;5062811;28;20033;-65
2021/03/16 00:24:33;;;;;;;34.58;3.35;;;5.60;99.90;;;;;;5064814;28;20641;-65
2021/03/16 00:26:59;;;;;;;34.10;4.97;;;5.60;99.90;;;;;;5065755;28;20045;-65
2021/03/16 00:29:24;;;;;;;32.33;4.38;;;5.60;99.90;;;;;;5065480;28;20048;-65
2021/03/16 00:31:50;;;;;;;33.72;4.72;;;5.60;99.90;;;;;;5062050;28;20090;-65
2021/03/16 00:34:16;;;;;;;27.67;3.03;;;5.60;99.90;;;;;;5062503;28;20087;-65
2021/03/16 00:36:42;;;;;;;29.15;3.75;;;5.60;99.90;;;;;;5055884;28;20467;-65
2021/03/16 00:39:07;;;;;;;22.25;3.47;;;5.60;99.90;;;;;;5064447;28;20532;-65
2021/03/16 00:41:34;;;;;;;34.92;5.22;;;5.60;99.90;;;;;;5060784;28;20139;-65
2021/03/16 00:43:59;;;;;;;20.35;3.72;;;5.70;99.90;;;;;;5062910;28;20123;-65
2021/03/16 00:46:25;;;;;;;26.95;3.20;;;5.60;99.90;;;;;;5065174;28;20569;-65
2021/03/16 00:48:51;;;;;;;29.02;3.45;;;5.60;99.90;;;;;;5059466;28;20029;-65
2021/03/16 00:51:17;;;;;;;24.38;3.05;;;5.70;99.90;;;;;;5065622;28;20231;-65
2021/03/16 00:53:43;;;;;;;23.65;3.10;;;5.70;99.90;;;;;;5062198;28;20122;-65
2021/03/16 00:56:09;;;;;;;30.40;3.55;;;5.70;99.90;;;;;;5065263;28;20044;-65
2021/03/16 00:58:34;;;;;;;26.40;4.00;;;5.70;99.90;;;;;;5064322;28;20043;-65
2021/03/16 01:01:00;;;;;;;30.40;3.90;;;5.70;99.90;;;;;;5061168;28;20041;-65
2021/03/16 01:03:27;;;;;;;34.63;4.45;;;5.80;99.90;;;;;;5044549;28;20052;-65
2021/03/16 01:05:55;;;;;;;26.27;3.35;;;5.80;99.90;;;;;;5062716;28;20106;-65
2021/03/16 01:08:21;;;;;;;23.08;3.75;;;5.80;99.90;;;;;;5063394;28;20062;-65
2021/03/16 01:10:48;;;;;;;21.73;3.17;;;5.80;99.80;;;;;;5062383;28;20183;-65
2021/03/16 01:13:14;;;;;;;22.80;3.38;;;5.80;99.60;;;;;;5063751;28;20545;-65
2021/03/16 01:15:40;;;;;;;23.52;3.22;;;5.80;99.60;;;;;;5063232;28;20032;-65
2021/03/16 01:18:06;;;;;;;22.13;2.67;;;5.80;99.60;;;;;;5060053;28;20072;-65
2021/03/16 01:20:33;;;;;;;18.42;3.28;;;5.80;99.60;;;;;;5061924;28;20079;-65
2021/03/16 01:22:58;;;;;;;26.10;3.75;;;5.80;99.40;;;;;;5060872;28;20483;-65
2021/03/16 01:25:24;;;;;;;29.27;3.30;;;5.80;99.50;;;;;;5063218;28;20039;-65
2021/03/16 01:27:50;;;;;;;23.65;2.90;;;5.80;99.40;;;;;;5062583;28;20032;-65
2021/03/16 01:30:16;;;;;;;21.65;2.92;;;5.80;99.40;;;;;;5049849;28;20044;-65
2021/03/16 01:32:44;;;;;;;22.10;3.00;;;5.80;99.40;;;;;;5067629;28;20037;-65
2021/03/16 01:35:12;;;;;;;33.22;3.30;;;5.80;99.40;;;;;;5066806;28;20039;-65
2021/03/16 01:37:39;;;;;;;26.23;3.42;;;5.80;99.60;;;;;;5067395;28;20040;-65
2021/03/16 01:40:15;;;;;;;28.25;3.70;;;5.80;99.80;;;;;;5068705;28;20032;-65
2021/03/16 01:42:42;;;;;;;22.02;2.90;;;5.80;99.70;;;;;;5065792;28;20139;-65
2021/03/16 01:45:10;;;;;;;20.75;4.32;;;5.80;99.80;;;;;;5065470;28;20082;-65
2021/03/16 01:47:36;;;;;;;29.00;4.35;;;5.80;99.70;;;;;;5066858;28;20036;-65
2021/03/16 01:50:04;;;;;;;21.63;3.75;;;5.80;99.80;;;;;;5062757;28;20063;-65
2021/03/16 01:52:31;;;;;;;29.05;3.30;;;5.80;99.90;;;;;;5065444;28;20037;-65
2021/03/16 01:54:59;;;;;;;25.20;2.95;;;5.90;99.90;;;;;;5068678;28;20041;-65
2021/03/16 01:57:26;;;;;;;22.85;2.95;;;5.90;99.80;;;;;;5067483;28;20115;-65
2021/03/16 01:59:51;;;;;;;31.27;3.63;;;5.90;99.70;;;;;;5067374;28;20090;-65
2021/03/16 02:02:17;;;;;;;23.67;3.38;;;5.90;99.70;;;;;;5066139;28;20425;-65
2021/03/16 02:04:43;;;;;;;22.55;2.80;;;5.90;99.30;;;;;;5068267;28;20076;-65
2021/03/16 02:07:15;;;;;;;24.13;3.38;;;5.90;99.30;;;;;;5064545;28;20060;-65
2021/03/16 02:09:46;;;;;;;26.77;3.58;;;5.90;99.30;;;;;;5067262;28;20045;-65
2021/03/16 02:12:18;;;;;;;20.35;3.08;;;5.90;99.40;;;;;;5066073;28;20028;-65
2021/03/16 02:15:04;;;;;;;24.60;3.38;;;5.90;99.60;;;;;;5068625;28;20033;-65
2021/03/16 02:17:33;;;;;;;25.50;3.13;;;5.90;99.60;;;;;;5062345;28;20036;-65
2021/03/16 02:20:20;;;;;;;28.05;3.83;;;5.90;99.50;;;;;;5064100;28;20509;-65
2021/03/16 02:22:47;;;;;;;29.73;3.28;;;5.80;99.40;;;;;;5063015;28;20564;-65
2021/03/16 02:25:35;;;;;;;26.00;2.88;;;5.80;99.40;;;;;;5064046;28;20130;-65
2021/03/16 02:28:22;;;;;;;21.42;2.55;;;5.90;99.60;;;;;;5064222;28;20399;-65
2021/03/16 02:30:48;;;;;;;27.85;3.00;;;5.90;99.60;;;;;;5060162;28;20044;-65
2021/03/16 02:33:19;;;;;;;32.67;4.78;;;5.80;99.60;;;;;;5055737;28;20048;-65
2021/03/16 02:35:48;;;;;;;27.08;4.30;;;5.90;99.90;;;;;;5037979;28;20042;-65
2021/03/16 02:38:17;;;;;;;22.83;2.92;;;5.90;99.90;;;;;;5056483;28;20040;-65
2021/03/16 02:40:47;;;;;;;26.95;3.70;;;5.90;99.90;;;;;;5061088;28;20102;-65
2021/03/16 02:43:13;;;;;;;25.08;3.65;;;5.80;99.90;;;;;;5064924;28;20043;-65
2021/03/16 02:45:39;;;;;;;20.63;3.05;;;5.90;99.90;;;;;;5061295;28;20110;-65
2021/03/16 02:48:07;;;;;;;28.52;3.03;;;5.80;99.90;;;;;;5061649;28;20476;-65
2021/03/16 02:50:34;;;;;;;20.52;2.67;;;5.80;99.90;;;;;;5067081;28;20127;-65
2021/03/16 02:53:02;;;;;;;19.98;2.70;;;5.80;99.90;;;;;;5040823;28;20040;-65
2021/03/16 02:55:29;;;;;;;22.70;4.15;;;5.90;99.90;;;;;;5057680;28;20037;-65
2021/03/16 02:57:59;;;;;;;26.05;2.90;;;5.80;99.90;;;;;;5060438;28;20089;-65
2021/03/16 03:00:25;;;;;;;23.88;3.75;;;5.80;99.90;;;;;;5057987;28;20044;-65
2021/03/16 03:02:52;;;;;;;23.17;3.17;;;5.80;99.90;;;;;;5059347;28;20036;-65
2021/03/16 03:05:19;;;;;;;28.45;3.17;;;5.90;99.90;;;;;;5058971;28;20060;-65
2021/03/16 03:07:45;;;;;;;22.83;2.42;;;5.90;99.90;;;;;;5059792;28;20036;-65
2021/03/16 03:10:12;;;;;;;16.40;2.72;;;5.90;99.90;;;;;;5056889;28;20550;-65
2021/03/16 03:12:38;;;;;;;26.70;3.40;;;5.90;99.90;;;;;;5042433;28;20044;-65
2021/03/16 03:15:07;;;;;;;25.77;3.67;;;5.80;99.90;;;;;;5062639;28;20784;-65
2021/03/16 03:17:32;;;;;;;23.75;3.42;;;5.80;99.90;;;;;;5055997;28;20608;-65
2021/03/16 03:19:58;;;;;;;27.83;3.53;;;5.80;99.90;;;;;;5063749;28;20041;-65
2021/03/16 03:22:34;;;;;;;18.15;3.22;;;5.80;99.90;;;;;;5063980;28;20125;-65
2021/03/16 03:25:07;;;;;;;25.08;3.95;;;5.80;99.90;;;;;;5062704;28;20041;-65
2021/03/16 03:27:38;;;;;;;23.08;3.47;;;5.80;99.90;;;;;;5065810;28;20032;-65
2021/03/16 03:30:05;;;;;;;29.65;3.15;;;5.80;99.90;;;;;;5066883;28;20115;-65
2021/03/16 03:32:33;;;;;;;25.40;3.53;;;5.80;99.90;;;;;;5067123;28;20047;-65
2021/03/16 03:35:00;;;;;;;25.52;3.63;;;5.90;99.90;;;;;;5043279;28;20045;-65
2021/03/16 03:37:28;;;;;;;26.35;3.70;;;5.80;99.90;;;;;;5067710;28;20067;-65
2021/03/16 03:39:54;;;;;;;22.38;3.38;;;5.80;99.90;;;;;;5063961;28;20050;-65
2021/03/16 03:42:20;;;;;;;26.48;2.38;;;5.80;99.90;;;;;;5063076;28;20037;-65
2021/03/16 03:44:48;;;;;;;27.10;4.05;;;5.80;99.90;;;;;;5063873;28;20036;-65
2021/03/16 03:47:17;;;;;;;14.50;2.03;;;5.80;99.90;;;;;;5063952;28;20604;-65
2021/03/16 03:49:44;;;;;;;24.05;5.18;;;5.80;99.90;;;;;;5065740;28;20036;-65
2021/03/16 03:52:12;;;;;;;21.83;2.72;;;5.80;99.90;;;;;;5063764;28;20037;-65
2021/03/16 03:54:42;;;;;;;26.65;3.65;;;5.90;99.90;;;;;;5066513;28;20032;-65
2021/03/16 03:57:10;;;;;;;21.42;2.65;;;5.90;99.90;;;;;;5063706;28;20045;-65
2021/03/16 03:59:40;;;;;;;25.85;3.30;;;5.80;99.90;;;;;;5066303;28;20040;-65
2021/03/16 04:02:06;;;;;;;21.50;2.60;;;5.90;99.90;;;;;;5061864;28;20430;-65
2021/03/16 04:04:32;;;;;;;29.10;3.13;;;5.90;99.90;;;;;;5064362;28;20063;-65
2021/03/16 04:06:59;;;;;;;23.67;3.30;;;5.90;99.90;;;;;;5062199;28;20162;-65
2021/03/16 04:09:24;;;;;;;22.45;3.15;;;5.90;99.90;;;;;;5066723;28;20045;-65
2021/03/16 04:11:52;;;;;;;20.73;3.28;;;5.90;99.90;;;;;;5062274;28;20055;-65
2021/03/16 04:14:18;;;;;;;28.35;3.03;;;5.80;99.90;;;;;;5063149;28;20070;-65
2021/03/16 04:16:45;;;;;;;20.25;2.90;;;5.80;99.90;;;;;;5061921;28;20453;-65
2021/03/16 04:19:11;;;;;;;25.73;2.50;;;5.90;99.90;;;;;;5066558;28;20104;-65
2021/03/16 04:21:37;;;;;;;22.05;3.03;;;5.80;99.90;;;;;;5063262;28;20090;-65
2021/03/16 04:24:03;;;;;;;27.80;4.57;;;5.80;99.90;;;;;;5061649;28;20475;-65
2021/03/16 04:26:29;;;;;;;21.73;2.40;;;5.80;99.90;;;;;;5046337;28;20033;-65
2021/03/16 04:28:55;;;;;;;24.50;3.58;;;5.90;99.90;;;;;;5065297;28;20044;-65
2021/03/16 04:31:21;;;;;;;27.38;3.38;;;5.80;99.90;;;;;;5064308;28;20480;-65
2021/03/16 04:33:46;;;;;;;27.80;2.92;;;5.90;99.90;;;;;;5060561;28;20040;-65
2021/03/16 04:36:12;;;;;;;26.42;2.50;;;5.80;99.90;;;;;;5063833;28;20562;-65
2021/03/16 04:38:38;;;;;;;22.15;2.63;;;5.80;99.90;;;;;;5062899;28;20068;-65
2021/03/16 04:41:03;;;;;;;19.40;2.30;;;5.80;99.90;;;;;;5062836;28;20510;-65
2021/03/16 04:43:29;;;;;;;25.00;3.80;;;5.80;99.90;;;;;;5060881;28;20040;-65
2021/03/16 04:45:55;;;;;;;20.95;3.75;;;5.70;99.90;;;;;;5063689;28;20033;-65
2021/03/16 04:48:20;;;;;;;19.52;2.40;;;5.70;99.90;;;;;;5066916;28;20482;-64
2021/03/16 04:50:46;;;;;;;22.38;2.70;;;5.80;99.90;;;;;;5062582;28;20047;-65
2021/03/16 04:53:12;;;;;;;23.65;4.13;;;5.70;99.90;;;;;;5063833;28;20043;-65
2021/03/16 04:55:37;;;;;;;17.65;2.08;;;5.70;99.90;;;;;;5062999;28;20398;-65
2021/03/16 04:58:03;;;;;;;21.10;2.17;;;5.70;99.90;;;;;;5064467;28;20043;-65
2021/03/16 05:00:29;;;;;;;18.45;2.45;;;5.70;99.90;;;;;;5061823;28;20052;-64
2021/03/16 05:02:55;;;;;;;18.25;2.47;;;5.70;99.90;;;;;;5065027;28;20039;-65
2021/03/16 05:05:21;;;;;;;21.48;2.92;;;5.70;99.90;;;;;;5048795;28;20040;-65
2021/03/16 05:07:46;;;;;;;27.73;2.90;;;5.70;99.90;;;;;;5048561;28;20132;-65
2021/03/16 05:10:12;;;;;;;27.08;2.53;;;5.70;99.90;;;;;;5066757;28;20475;-65
2021/03/16 05:12:38;;;;;;;20.35;2.75;;;5.60;99.90;;;;;;5068624;28;20054;-65
2021/03/16 05:15:06;;;;;;;22.20;2.90;;;5.60;99.90;;;;;;5066804;28;20041;-65
2021/03/16 05:17:32;;;;;;;21.52;2.42;;;5.60;99.90;;;;;;5068677;28;20032;-65
2021/03/16 05:19:58;;;;;;;28.73;2.80;;;5.60;99.90;;;;;;5068787;28;20046;-65
2021/03/16 05:22:23;;;;;;;19.00;2.08;;;5.60;99.90;;;;;;5064379;28;20036;-65
2021/03/16 05:24:49;;;;;;;16.00;2.25;;;5.60;99.90;;;;;;5067429;28;20455;-65
2021/03/16 05:27:15;;;;;;;28.85;2.30;;;5.60;99.90;;;;;;5065237;28;20040;-65
2021/03/16 05:29:40;;;;;;;25.67;3.25;;;5.60;99.90;;;;;;5068493;28;20552;-65
2021/03/16 05:32:07;;;;;;;19.95;2.20;;;5.60;99.90;;;;;;5067249;28;20529;-65
2021/03/16 05:34:32;;;;;;;25.20;2.88;;;5.50;99.90;;;;;;5067295;28;20040;-65
2021/03/16 05:36:58;;;;;;;23.88;2.25;;;5.50;99.90;;;;;;5068299;28;20058;-65
2021/03/16 05:39:24;;;;;;;20.70;2.45;;;5.60;99.90;;;;;;5045859;28;20044;-65
2021/03/16 05:41:51;;;;;;;19.80;2.25;;;5.50;99.90;;;;;;5059657;28;20076;-65
2021/03/16 05:44:17;;;;;;;17.73;2.72;;;5.50;99.90;;;;;;5063922;28;20042;-65
2021/03/16 05:46:44;;;;;;;26.25;2.90;;;5.50;99.90;;;;;;5062006;28;20032;-64
2021/03/16 05:49:10;;;;;;;20.98;2.45;;;5.50;99.90;;;;;;5060557;28;20479;-65
2021/03/16 05:51:37;;;;;;;22.52;3.13;;;5.50;99.90;;;;;;5058505;28;20047;-65
2021/03/16 05:54:06;;;;;;;23.48;5.00;;;5.40;99.90;;;;;;5061838;28;20551;-65
2021/03/16 05:56:34;;;;;;;19.42;2.45;;;5.50;99.90;;;;;;5065030;28;20085;-65
2021/03/16 05:59:02;;;;;;;30.23;2.83;;;5.50;99.90;;;;;;5062613;28;20036;-65
2021/03/16 06:01:28;;;;;;;19.88;2.70;;;5.40;99.90;;;;;;5066838;28;20078;-65
2021/03/16 06:03:54;;;;;;;22.02;2.60;;;5.40;99.90;;;;;;5068199;28;20094;-65
2021/03/16 06:06:20;;;;;;;27.65;3.58;;;5.30;99.90;;;;;;5063115;28;20474;-65
2021/03/16 06:08:47;;;;;;;22.73;3.35;;;5.30;99.90;;;;;;5065071;28;20037;-65
2021/03/16 06:11:13;;;;;;;23.20;3.25;;;5.30;99.90;;;;;;5060654;28;20056;-65
2021/03/16 06:13:51;;;;;;;20.50;2.90;;;5.40;99.90;;;;;;5060933;28;20041;-65
2021/03/16 06:16:17;;;;;;;24.30;2.63;;;5.40;99.90;;;;;;5062194;28;20752;-65
2021/03/16 06:18:45;;;;;;;25.98;2.40;;;5.40;99.90;;;;;;5046458;28;20032;-65
2021/03/16 06:21:16;;;;;;;23.13;2.28;;;5.40;99.90;;;;;;5064739;28;20045;-65
2021/03/16 06:23:51;;;;;;;21.30;3.28;;;5.40;99.90;;;;;;5057476;28;20194;-65
2021/03/16 06:26:18;;;;;;;21.40;2.40;;;5.50;99.90;;;;;;5064878;28;20047;-65
2021/03/16 06:28:44;;;;;;;22.23;3.33;;;5.50;99.90;;;;;;5064347;28;20044;-65
2021/03/16 06:31:23;;;;;;;23.45;3.20;;;5.50;99.90;;;;;;5065107;28;20040;-65
2021/03/16 06:33:50;;;;;;;22.67;2.65;;;5.50;99.90;;;;;;5068354;28;20107;-65
2021/03/16 06:36:16;;;;;;;29.73;2.83;;;5.60;99.90;;;;;;5060339;28;20105;-65
2021/03/16 06:38:42;;;;;;;27.48;3.38;;;5.70;99.90;;;;;;5066604;28;20475;-65
2021/03/16 06:41:16;;;;;;;22.02;2.28;;;5.70;99.90;;;;;;5063794;28;20045;-65
2021/03/16 06:43:51;;;;;;;25.90;2.97;;;5.80;99.90;;;;;;5063865;28;20487;-65
2021/03/16 06:46:39;;;;;;;20.60;2.88;;;5.70;99.90;;;;;;5065265;28;20486;-65
2021/03/16 06:49:18;;;;;;;18.35;2.58;;;6.00;99.90;;;;;;5063218;28;20471;-65
2021/03/16 06:51:45;;;;;;;20.90;2.45;;;6.40;99.90;;;;;;5062187;28;20368;-65
2021/03/16 06:54:20;;;;;;;21.33;3.15;;;6.60;99.90;;;;;;5064767;28;20029;-65
2021/03/16 06:56:57;;;;;;;25.87;3.30;;;6.80;99.80;;;;;;5065418;28;20047;-65
2021/03/16 06:59:25;;;;;;;24.58;2.13;;;6.90;99.60;;;;;;5048754;28;20792;-65
2021/03/16 07:01:51;;;;;;;28.60;3.65;;;7.00;99.40;;;;;;5059618;28;20503;-65
2021/03/16 07:04:20;;;;;;;20.95;2.90;;;7.00;98.70;;;;;;5065417;28;20797;-65
2021/03/16 07:06:50;;;;;;;21.23;2.58;;;7.00;98.80;;;;;;5057552;28;20131;-65
2021/03/16 07:09:17;;;;;;;28.83;3.15;;;6.90;98.80;;;;;;5061214;28;20033;-65
2021/03/16 07:11:47;;;;;;;18.35;2.45;;;6.90;98.70;;;;;;5064543;28;20589;-65
2021/03/16 07:14:15;;;;;;;15.93;2.63;;;6.80;98.90;;;;;;5060741;28;20425;-65
2021/03/16 07:16:42;;;;;;;23.40;3.63;;;6.80;98.90;;;;;;5066084;28;20087;-65
2021/03/16 07:19:09;;;;;;;22.55;2.72;;;6.70;98.90;;;;;;5061848;28;20040;-65
2021/03/16 07:21:40;;;;;;;28.25;3.90;;;6.70;98.80;;;;;;5062776;28;20090;-65
2021/03/16 07:24:06;;;;;;;20.20;2.72;;;6.60;98.90;;;;;;5046027;28;20119;-65
2021/03/16 07:26:33;;;;;;;14.85;2.40;;;6.60;98.90;;;;;;5065066;28;20036;-65
2021/03/16 07:29:00;;;;;;;18.17;2.72;;;6.60;99.10;;;;;;5046061;28;20569;-65
2021/03/16 07:31:26;;;;;;;20.05;2.28;;;6.60;99.00;;;;;;5060402;28;20041;-65
2021/03/16 07:33:52;;;;;;;29.45;2.88;;;6.70;98.70;;;;;;5066989;28;20089;-65
2021/03/16 07:36:18;;;;;;;23.95;3.00;;;6.80;98.60;;;;;;5047809;28;20094;-65
2021/03/16 07:38:45;;;;;;;23.35;3.25;;;6.90;98.80;;;;;;5067598;28;20447;-65
2021/03/16 07:41:11;;;;;;;21.02;2.95;;;6.90;98.50;;;;;;5062866;28;20040;-65
2021/03/16 07:43:39;;;;;;;17.85;2.35;;;6.90;98.30;;;;;;5054779;28;20048;-65
2021/03/16 07:46:17;;;;;;;17.17;2.47;;;7.00;98.50;;;;;;5049967;28;20036;-65
2021/03/16 07:48:43;;;;;;;19.58;3.97;;;7.10;98.50;;;;;;5051749;28;20067;-65
2021/03/16 07:51:13;;;;;;;19.55;3.47;;;7.10;98.10;;;;;;5048877;28;20048;-65
2021/03/16 07:53:40;;;;;;;21.42;2.30;;;7.20;98.10;;;;;;5052223;28;20048;-65
2021/03/16 07:56:08;;;;;;;20.65;2.25;;;7.30;97.90;;;;;;5051593;28;20044;-65
2021/03/16 07:58:44;;;;;;;23.80;2.35;;;7.40;97.90;;;;;;5051858;28;20048;-65
2021/03/16 08:01:10;;;;;;;17.92;3.58;;;7.40;97.60;;;;;;5050803;28;20067;-65
2021/03/16 08:03:36;;;;;;;15.88;1.88;;;7.50;97.80;;;;;;5053426;28;20430;-65
2021/03/16 08:06:02;;;;;;;18.10;2.08;;;7.50;97.20;;;;;;5048388;28;20041;-66
2021/03/16 08:08:39;;;;;;;14.80;1.75;;;7.60;97.20;;;;;;5048097;28;20044;-65
2021/03/16 08:11:12;;;;;;;13.90;2.50;;;7.60;97.20;;;;;;5032516;28;20037;-65
2021/03/16 08:13:39;;;;;;;19.20;2.53;;;7.70;96.60;;;;;;5050173;28;20123;-66
2021/03/16 08:16:12;;;;;;;15.20;2.63;;;7.80;96.90;;;;;;5050658;28;20037;-65
2021/03/16 08:18:39;;;;;;;17.67;1.90;;;7.90;96.60;;;;;;5050007;28;20056;-65
2021/03/16 08:21:13;;;;;;;17.85;1.98;;;8.00;96.20;;;;;;5048687;28;20072;-65
2021/03/16 08:23:39;;;;;;;15.98;2.33;;;8.10;96.60;;;;;;5050503;28;20047;-66
2021/03/16 08:26:07;;;;;;;9.93;1.25;;;8.20;96.60;;;;;;5053044;28;20050;-66
2021/03/16 08:28:34;;;;;;;11.35;1.90;;;8.10;95.60;;;;;;5051947;28;20147;-65
2021/03/16 08:31:01;;;;;;;16.17;1.67;;;8.30;95.60;;;;;;5051332;28;20111;-65
2021/03/16 08:33:28;;;;;;;16.65;2.22;;;8.30;95.50;;;;;;5050951;28;20394;-66
2021/03/16 08:35:55;;;;;;;14.23;2.22;;;8.30;95.40;;;;;;5049372;28;20051;-66
2021/03/16 08:38:30;;;;;;;15.45;2.65;;;8.30;95.30;;;;;;5053965;28;20049;-66
2021/03/16 08:41:08;;;;;;;18.58;2.53;;;8.40;95.10;;;;;;5056472;28;20032;-66
2021/03/16 08:43:34;;;;;;;12.02;2.10;;;8.30;94.90;;;;;;5054454;28;20041;-66
2021/03/16 08:46:00;;;;;;;13.45;1.40;;;8.30;95.20;;;;;;5053949;28;21805;-66
2021/03/16 08:48:30;;;;;;;20.30;2.75;;;8.40;94.80;;;;;;5054517;28;20095;-65
2021/03/16 08:50:56;;;;;;;14.48;1.98;;;8.50;94.50;;;;;;5054116;28;20040;-65
2021/03/16 08:53:23;;;;;;;12.60;1.60;;;8.60;94.30;;;;;;5053059;28;20054;-66
2021/03/16 08:55:50;;;;;;;10.43;2.50;;;8.60;92.70;;;;;;5053756;28;20111;-66
2021/03/16 08:58:16;;;;;;;12.77;1.38;;;8.60;92.20;;;;;;5054079;28;20037;-66
2021/03/16 09:00:43;;;;;;;10.93;1.00;;;8.50;92.60;;;;;;5052611;28;20049;-66
2021/03/16 09:03:09;;;;;;;14.98;2.05;;;8.80;93.00;;;;;;5052787;28;20067;-66
2021/03/16 09:05:35;;;;;;;6.65;0.95;;;9.00;92.60;;;;;;5054963;28;20072;-66
2021/03/16 09:08:02;;;;;;;10.70;1.15;;;9.50;93.00;;;;;;5052678;28;20072;-66
2021/03/16 09:10:28;;;;;;;8.20;2.08;;;9.90;91.40;;;;;;5033752;28;20158;-66
2021/03/16 09:12:54;;;;;;;11.18;1.35;;;10.30;91.10;;;;;;5053386;28;20056;-66
2021/03/16 09:15:25;;;;;;;9.38;1.08;;;10.50;90.10;;;;;;5034084;28;20043;-66
2021/03/16 09:17:55;;;;;;;11.68;1.20;;;10.80;88.30;;;;;;5050448;28;20102;-66
2021/03/16 09:20:30;;;;;;;7.57;1.33;;;10.60;86.20;;;;;;5050764;28;20059;-66
2021/03/16 09:23:07;;;;;;;8.57;1.30;;;10.50;87.60;;;;;;5053575;28;20085;-65
2021/03/16 09:25:38;;;;;;;10.60;1.23;;;10.30;87.20;;;;;;5052635;28;20040;-66
2021/03/16 09:28:06;;;;;;;12.70;2.15;;;10.00;89.20;;;;;;5054729;28;20107;-65
2021/03/16 09:30:35;;;;;;;13.43;2.13;;;9.90;90.40;;;;;;5052393;28;20044;-65
2021/03/16 09:33:02;;;;;;;12.80;1.65;;;9.70;90.30;;;;;;5055404;28;20044;-65
2021/03/16 09:35:28;;;;;;;12.82;1.90;;;9.60;90.30;;;;;;5052889;28;20085;-65
2021/03/16 09:37:54;;;;;;;8.68;0.98;;;9.70;90.70;;;;;;5049876;28;20048;-65
2021/03/16 09:40:38;;;;;;;9.88;1.65;;;9.70;90.10;;;;;;5051376;28;21502;-66
2021/03/16 09:43:36;;;;;;;16.77;2.33;;;9.90;90.50;;;;;;5050241;28;20134;-66
2021/03/16 09:46:12;;;;;;;9.68;1.60;;;10.00;89.70;;;;;;5051708;28;20044;-65
2021/03/16 09:48:39;;;;;;;8.05;1.10;;;10.00;88.10;;;;;;5047430;28;20170;-65
2021/03/16 09:51:18;;;;;;;9.77;1.42;;;10.00;89.90;;;;;;5052290;28;20051;-65
2021/03/16 09:53:48;;;;;;;9.65;1.58;;;10.00;88.70;;;;;;5051467;28;20068;-65
2021/03/16 09:56:14;;;;;;;10.85;1.73;;;10.00;87.50;;;;;;5051405;28;20058;-65
2021/03/16 09:58:47;;;;;;;5.85;0.93;;;10.10;87.40;;;;;;5053202;28;20053;-65
2021/03/16 10:01:13;;;;;;;11.15;1.67;;;10.10;88.70;;;;;;5052592;28;20120;-66
2021/03/16 10:03:39;;;;;;;10.27;1.35;;;9.90;88.10;;;;;;5053106;28;20041;-65
2021/03/16 10:06:06;;;;;;;53.25;5.13;;;9.70;89.60;;;;;;5052215;28;20052;-65
2021/03/16 10:08:32;;;;;;;11.85;2.08;;;9.50;87.50;;;;;;5052631;28;20032;-65
2021/03/16 10:10:58;;;;;;;13.05;1.48;;;9.40;88.00;;;;;;5054789;28;20482;-65
2021/03/16 10:13:40;;;;;;;8.23;1.30;;;9.40;90.00;;;;;;5053503;28;20037;-65
2021/03/16 10:16:10;;;;;;;9.85;1.35;;;9.40;88.60;;;;;;5053893;28;20035;-65
2021/03/16 10:18:42;;;;;;;10.70;1.40;;;9.60;90.00;;;;;;5054652;28;20094;-65
2021/03/16 10:21:08;;;;;;;10.40;1.75;;;9.80;91.00;;;;;;5054857;28;20487;-65
2021/03/16 10:23:34;;;;;;;17.52;2.63;;;10.00;90.30;;;;;;5051291;28;20048;-65
2021/03/16 10:26:04;;;;;;;18.05;1.67;;;10.20;89.10;;;;;;5054725;28;20041;-65
2021/03/16 10:28:36;;;;;;;35.20;2.45;;;10.30;86.60;;;;;;5044036;28;20155;-65
2021/03/16 10:31:20;;;;;;;7.43;1.27;;;10.50;85.00;;;;;;5050464;28;20059;-65
2021/03/16 10:33:48;;;;;;;24.48;1.70;;;10.50;81.00;;;;;;5053842;28;20040;-65
2021/03/16 10:36:14;;;;;;;62.10;5.55;;;10.60;87.30;;;;;;5051838;28;20043;-65
2021/03/16 10:38:40;;;;;;;66.45;7.55;;;10.70;85.10;;;;;;5048820;28;20044;-65
2021/03/16 10:41:06;;;;;;;11.65;1.20;;;10.80;83.90;;;;;;5049101;28;20041;-65
2021/03/16 10:43:32;;;;;;;65.75;5.75;;;11.00;85.50;;;;;;5049431;28;20037;-65
2021/03/16 10:45:58;;;;;;;22.45;2.35;;;11.10;83.10;;;;;;5050474;28;20036;-65
2021/03/16 10:48:24;;;;;;;30.45;2.97;;;11.30;84.40;;;;;;5049093;28;20083;-65
2021/03/16 10:50:50;;;;;;;17.38;2.03;;;11.40;81.50;;;;;;5030873;28;20113;-65
2021/03/16 10:53:17;;;;;;;7.10;0.80;;;11.40;83.80;;;;;;5049064;28;20036;-66
2021/03/16 10:55:43;;;;;;;7.30;1.00;;;11.30;83.40;;;;;;5053765;28;20046;-66
2021/03/16 10:58:09;;;;;;;11.52;1.17;;;11.30;79.90;;;;;;5049795;28;20045;-66
2021/03/16 11:00:36;;;;;;;9.00;1.00;;;11.10;78.90;;;;;;5031324;28;20097;-66
2021/03/16 11:03:02;;;;;;;12.35;1.55;;;11.00;82.80;;;;;;5050589;28;20132;-66
2021/03/16 11:05:28;;;;;;;10.48;1.63;;;11.10;85.80;;;;;;5049188;28;20048;-66
2021/03/16 11:07:54;;;;;;;19.15;1.88;;;11.10;82.10;;;;;;5048633;28;20041;-66
2021/03/16 11:10:20;;;;;;;7.30;0.85;;;11.10;83.30;;;;;;5048831;28;20055;-66
2021/03/16 11:12:46;;;;;;;6.80;0.73;;;11.00;80.70;;;;;;5047441;28;20514;-66
2021/03/16 11:15:12;;;;;;;13.40;1.60;;;10.70;82.60;;;;;;5044841;28;20149;-66
2021/03/16 11:17:37;;;;;;;6.68;1.58;;;10.30;81.00;;;;;;5029730;28;20075;-66
2021/03/16 11:20:05;;;;;;;9.25;1.42;;;10.20;83.80;;;;;;5049266;28;20045;-66
2021/03/16 11:22:30;;;;;;;14.95;2.42;;;10.10;83.60;;;;;;5031235;28;20040;-66
2021/03/16 11:24:56;;;;;;;10.20;1.20;;;10.30;88.40;;;;;;5050445;28;20040;-66
2021/03/16 11:27:22;;;;;;;9.27;1.30;;;10.40;89.50;;;;;;5048577;28;20155;-66
2021/03/16 11:29:48;;;;;;;7.03;0.68;;;10.50;84.20;;;;;;5048352;28;20550;-66
2021/03/16 11:32:14;;;;;;;7.13;1.02;;;10.60;83.80;;;;;;5051484;28;20033;-66
2021/03/16 11:34:39;;;;;;;8.95;1.38;;;10.80;82.20;;;;;;5051598;28;20047;-66
2021/03/16 11:37:05;;;;;;;10.82;1.90;;;11.10;85.90;;;;;;5052326;28;20123;-66
2021/03/16 11:39:31;;;;;;;9.40;1.17;;;11.00;81.50;;;;;;5050923;28;20033;-66
2021/03/16 11:41:57;;;;;;;6.72;0.80;;;10.80;79.50;;;;;;5052375;28;20052;-66
2021/03/16 11:44:22;;;;;;;8.95;1.00;;;10.60;79.60;;;;;;5049268;28;20560;-66
2021/03/16 11:46:48;;;;;;;9.52;1.05;;;10.50;82.80;;;;;;5050363;28;20075;-66
2021/03/16 11:49:14;;;;;;;6.80;0.73;;;10.70;83.50;;;;;;5052118;28;20123;-66
2021/03/16 11:51:40;;;;;;;9.65;1.00;;;10.70;83.30;;;;;;5048591;28;20041;-66
2021/03/16 11:54:06;;;;;;;9.63;1.45;;;10.90;82.20;;;;;;5050071;28;20028;-66
2021/03/16 11:56:31;;;;;;;7.57;1.30;;;11.00;82.20;;;;;;5051569;28;20033;-66
2021/03/16 11:58:57;;;;;;;8.13;1.02;;;11.20;84.70;;;;;;5049034;28;20044;-66
2021/03/16 12:01:23;;;;;;;15.10;1.90;;;11.30;81.30;;;;;;5050860;28;20676;-66
2021/03/16 12:03:49;;;;;;;9.70;1.55;;;11.30;82.70;;;;;;5052052;28;20041;-66
2021/03/16 12:06:14;;;;;;;9.27;1.40;;;11.40;76.40;;;;;;5049731;28;20090;-66
2021/03/16 12:08:41;;;;;;;9.75;1.45;;;11.50;78.70;;;;;;5048010;28;20176;-66
2021/03/16 12:11:07;;;;;;;7.82;1.00;;;11.50;77.90;;;;;;5048201;28;20040;-66
2021/03/16 12:13:32;;;;;;;9.23;0.90;;;11.60;79.50;;;;;;5051212;28;20032;-66
2021/03/16 12:15:59;;;;;;;8.95;1.10;;;11.70;79.90;;;;;;5052538;28;20267;-66
2021/03/16 12:18:25;;;;;;;7.55;0.88;;;11.90;76.80;;;;;;5048794;28;20039;-66
2021/03/16 12:20:52;;;;;;;9.43;1.25;;;11.80;76.80;;;;;;5049851;28;20051;-66
2021/03/16 12:23:18;;;;;;;6.60;0.80;;;11.90;74.40;;;;;;5052160;28;20037;-66
2021/03/16 12:25:45;;;;;;;6.40;0.93;;;12.10;75.30;;;;;;5056168;28;20079;-66
2021/03/16 12:28:11;;;;;;;6.40;0.93;;;12.10;73.10;;;;;;5051121;28;20429;-66
2021/03/16 12:30:37;;;;;;;4.82;1.20;;;12.00;72.90;;;;;;5051460;28;20036;-66
2021/03/16 12:33:03;;;;;;;8.43;0.73;;;11.90;72.30;;;;;;5053801;28;20448;-66
2021/03/16 12:35:29;;;;;;;4.18;1.35;;;11.60;73.60;;;;;;5052631;28;20181;-66
2021/03/16 12:37:55;;;;;;;9.60;1.42;;;11.50;76.20;;;;;;5050449;28;20483;-66
2021/03/16 12:40:21;;;;;;;7.00;1.25;;;11.40;76.90;;;;;;5030084;28;20052;-66
2021/03/16 12:42:47;;;;;;;6.80;1.10;;;11.30;79.00;;;;;;5059678;28;20098;-66
2021/03/16 12:45:13;;;;;;;8.27;1.27;;;11.40;81.10;;;;;;5050915;28;20147;-66
2021/03/16 12:47:39;;;;;;;6.65;0.88;;;11.50;75.90;;;;;;5048894;28;20036;-66